createdAt,value
2023-04-02T00:01:08.391Z,84
2023-04-02T00:03:08.573Z,84
2023-04-02T00:05:08.414Z,84
2023-04-02T00:07:08.421Z,84
2023-04-02T00:09:08.409Z,84
2023-04-02T00:11:08.433Z,84
2023-04-02T00:13:08.432Z,84
2023-04-02T00:15:08.540Z,84
2023-04-02T00:17:08.368Z,84
2023-04-02T00:19:08.422Z,84
2023-04-02T00:23:08.396Z,83
2023-04-02T00:25:08.402Z,83
2023-04-02T00:27:08.430Z,84
2023-04-02T00:29:07.097Z,84
2023-04-02T00:31:08.376Z,84
2023-04-02T00:33:15.015Z,84
2023-04-02T00:35:08.424Z,84
2023-04-02T00:37:08.695Z,84
2023-04-02T00:39:08.433Z,84
2023-04-02T00:41:08.422Z,84
2023-04-02T00:47:11.311Z,84
2023-04-02T00:49:08.277Z,84
2023-04-02T00:51:13.159Z,84
2023-04-02T00:53:08.408Z,84
2023-04-02T00:55:11.610Z,84
2023-04-02T00:57:08.704Z,84
2023-04-02T00:59:08.364Z,84
2023-04-02T01:01:08.466Z,84
2023-04-02T01:03:11.446Z,84
2023-04-02T01:05:08.416Z,84
2023-04-02T01:07:08.419Z,84
2023-04-02T01:09:11.398Z,84
2023-04-02T01:11:08.397Z,84
2023-04-02T01:13:08.389Z,84
2023-04-02T01:15:15.080Z,84
2023-04-02T01:17:08.733Z,84
2023-04-02T01:19:08.391Z,84
2023-04-02T01:21:08.384Z,84
2023-04-02T01:23:11.328Z,84
2023-04-02T01:25:09.062Z,84
2023-04-02T01:27:08.432Z,84
2023-04-02T01:29:08.428Z,84
2023-04-02T01:31:08.203Z,84
2023-04-02T01:33:08.440Z,84
2023-04-02T01:35:08.324Z,84
2023-04-02T01:37:08.410Z,84
2023-04-02T01:39:08.353Z,84
2023-04-02T01:41:09.997Z,84
2023-04-02T01:43:13.455Z,84
2023-04-02T01:45:11.514Z,84
2023-04-02T01:47:11.283Z,84
2023-04-02T01:49:08.411Z,84
2023-04-02T01:53:08.331Z,84
2023-04-02T01:55:11.588Z,84
2023-04-02T01:57:08.478Z,84
2023-04-02T02:01:08.513Z,84
2023-04-02T02:03:08.631Z,84
2023-04-02T02:07:08.449Z,84
2023-04-02T02:09:08.414Z,84
2023-04-02T02:11:08.387Z,84
2023-04-02T02:13:10.081Z,84
2023-04-02T02:15:08.407Z,84
2023-04-02T02:17:06.849Z,84
2023-04-02T02:21:08.370Z,84
2023-04-02T02:23:08.596Z,84
2023-04-02T02:25:08.429Z,84
2023-04-02T02:27:09.048Z,84
2023-04-02T02:31:08.446Z,84
2023-04-02T02:33:08.460Z,84
2023-04-02T02:35:08.395Z,84
2023-04-02T02:37:11.590Z,84
2023-04-02T02:39:08.408Z,84
2023-04-02T02:43:11.332Z,84
2023-04-02T02:47:08.631Z,84
2023-04-02T02:49:11.811Z,84
2023-04-02T02:51:08.409Z,84
2023-04-02T02:53:11.371Z,84
2023-04-02T02:55:06.865Z,84
2023-04-02T02:57:08.345Z,84
2023-04-02T03:01:08.427Z,84
2023-04-02T03:03:08.562Z,84
2023-04-02T03:05:08.411Z,84
2023-04-02T03:07:08.380Z,85
2023-04-02T03:09:08.456Z,84
2023-04-02T03:11:08.315Z,84
2023-04-02T03:13:08.431Z,84
2023-04-02T03:15:08.291Z,84
2023-04-02T03:17:08.393Z,85
2023-04-02T03:19:08.089Z,84
2023-04-02T03:21:08.237Z,84
2023-04-02T03:23:13.142Z,85
2023-04-02T03:25:08.406Z,85
2023-04-02T03:27:08.515Z,84
2023-04-02T03:29:08.418Z,84
2023-04-02T03:31:08.357Z,85
2023-04-02T03:33:11.630Z,85
2023-04-02T03:35:08.383Z,85
2023-04-02T03:37:09.900Z,85
2023-04-02T03:39:14.579Z,85
2023-04-02T03:41:11.440Z,85
2023-04-02T03:43:11.507Z,85
2023-04-02T03:51:08.425Z,85
2023-04-02T03:53:08.417Z,85
2023-04-02T03:55:08.875Z,85
2023-04-02T03:57:11.528Z,85
2023-04-02T03:59:08.429Z,85
2023-04-02T04:01:08.471Z,85
2023-04-02T04:03:08.655Z,85
2023-04-02T04:05:08.319Z,85
2023-04-02T04:09:09.916Z,85
2023-04-02T04:11:08.627Z,85
2023-04-02T04:13:08.400Z,85
2023-04-02T04:15:08.456Z,85
2023-04-02T04:17:11.657Z,85
2023-04-02T04:19:10.003Z,85
2023-04-02T04:21:09.937Z,85
2023-04-02T04:23:08.458Z,85
2023-04-02T04:25:10.039Z,85
2023-04-02T04:27:08.419Z,85
2023-04-02T04:29:08.405Z,85
2023-04-02T04:31:10.041Z,85
2023-04-02T04:33:10.144Z,85
2023-04-02T04:35:08.410Z,85
2023-04-02T04:37:08.433Z,85
2023-04-02T04:39:11.590Z,85
2023-04-02T04:41:11.620Z,85
2023-04-02T04:43:08.487Z,85
2023-04-02T04:45:08.897Z,85
2023-04-02T04:47:08.165Z,85
2023-04-02T04:49:08.414Z,85
2023-04-02T04:51:08.426Z,85
2023-04-02T04:53:11.598Z,85
2023-04-02T04:55:08.547Z,85
2023-04-02T04:57:08.479Z,85
2023-04-02T04:59:08.456Z,85
2023-04-02T05:01:11.342Z,85
2023-04-02T05:03:08.389Z,85
2023-04-02T05:05:11.449Z,85
2023-04-02T05:07:08.453Z,85
2023-04-02T05:09:08.482Z,85
2023-04-02T05:11:14.905Z,85
2023-04-02T05:13:08.424Z,85
2023-04-02T05:15:11.352Z,85
2023-04-02T05:17:08.412Z,85
2023-04-02T05:19:11.591Z,85
2023-04-02T05:21:08.456Z,85
2023-04-02T05:23:08.453Z,85
2023-04-02T05:27:11.716Z,85
2023-04-02T05:29:08.421Z,85
2023-04-02T05:31:08.498Z,85
2023-04-02T05:33:11.563Z,85
2023-04-02T05:35:08.478Z,85
2023-04-02T05:37:08.419Z,85
2023-04-02T05:39:11.938Z,85
2023-04-02T05:41:08.479Z,85
2023-04-02T05:43:08.424Z,85
2023-04-02T05:45:08.466Z,85
2023-04-02T05:47:08.452Z,85
2023-04-02T05:51:08.477Z,85
2023-04-02T05:53:11.429Z,85
2023-04-02T05:55:10.094Z,85
2023-04-02T05:57:08.449Z,85
2023-04-02T05:59:08.247Z,85
2023-04-02T06:01:10.037Z,85
2023-04-02T06:03:08.464Z,85
2023-04-02T06:05:08.422Z,85
2023-04-02T06:07:08.407Z,85
2023-04-02T06:09:08.437Z,85
2023-04-02T06:11:08.504Z,85
2023-04-02T06:13:11.563Z,85
2023-04-02T06:15:08.472Z,85
2023-04-02T06:17:11.415Z,85
2023-04-02T06:21:08.500Z,85
2023-04-02T06:23:14.731Z,85
2023-04-02T06:25:08.435Z,85
2023-04-02T06:27:08.557Z,85
2023-04-02T06:29:14.756Z,84
2023-04-02T06:31:11.677Z,84
2023-04-02T06:33:08.406Z,85
2023-04-02T06:37:08.434Z,84
2023-04-02T06:39:14.730Z,84
2023-04-02T06:41:08.463Z,84
2023-04-02T06:43:08.471Z,84
2023-04-02T06:45:05.693Z,84
2023-04-02T06:47:08.410Z,84
2023-04-02T06:51:11.687Z,84
2023-04-02T06:53:08.464Z,84
2023-04-02T06:55:08.572Z,84
2023-04-02T06:57:10.114Z,84
2023-04-02T06:59:11.656Z,84
2023-04-02T07:01:08.775Z,84
2023-04-02T07:03:08.546Z,84
2023-04-02T07:05:11.820Z,84
2023-04-02T07:07:08.448Z,84
2023-04-02T07:09:08.464Z,84
2023-04-02T07:11:08.479Z,84
2023-04-02T07:13:11.861Z,84
2023-04-02T07:15:14.800Z,84
2023-04-02T07:17:11.546Z,84
2023-04-02T07:21:08.498Z,83
2023-04-02T07:23:08.251Z,83
2023-04-02T07:25:12.092Z,83
2023-04-02T07:27:08.489Z,83
2023-04-02T07:29:10.107Z,83
2023-04-02T07:31:08.780Z,83
2023-04-02T07:33:08.483Z,83
2023-04-02T07:35:08.447Z,83
2023-04-02T07:37:11.872Z,83
2023-04-02T07:39:08.251Z,83
2023-04-02T07:41:11.604Z,83
2023-04-02T07:43:08.429Z,83
2023-04-02T07:45:08.493Z,83
2023-04-02T07:47:08.456Z,82
2023-04-02T07:51:08.496Z,82
2023-04-02T07:53:08.464Z,82
2023-04-02T07:57:08.503Z,82
2023-04-02T07:59:11.846Z,82
2023-04-02T08:01:08.478Z,82
2023-04-02T08:03:08.510Z,82
2023-04-02T08:05:08.451Z,82
2023-04-02T08:07:08.402Z,82
2023-04-02T08:09:11.434Z,82
2023-04-02T08:11:08.387Z,82
2023-04-02T08:13:11.651Z,82
2023-04-02T08:15:08.399Z,82
2023-04-02T08:17:08.713Z,82
2023-04-02T08:19:08.445Z,82
2023-04-02T08:21:06.904Z,82
2023-04-02T08:23:08.741Z,82
2023-04-02T08:25:08.533Z,82
2023-04-02T08:27:08.457Z,82
2023-04-02T08:29:08.456Z,82
2023-04-02T08:31:11.711Z,82
2023-04-02T08:33:08.516Z,82
2023-04-02T08:35:11.618Z,81
2023-04-02T08:37:08.454Z,81
2023-04-02T08:39:12.054Z,81
2023-04-02T08:43:11.458Z,81
2023-04-02T08:47:11.358Z,81
2023-04-02T08:49:08.513Z,81
2023-04-02T08:51:08.510Z,81
2023-04-02T08:53:08.508Z,81
2023-04-02T08:55:10.238Z,81
2023-04-02T08:57:08.673Z,81
2023-04-02T08:59:08.644Z,81
2023-04-02T09:03:08.540Z,81
2023-04-02T09:05:11.649Z,81
2023-04-02T09:07:08.391Z,80
2023-04-02T09:09:11.805Z,80
2023-04-02T09:11:08.678Z,80
2023-04-02T09:13:08.365Z,80
2023-04-02T09:15:08.715Z,80
2023-04-02T09:17:08.467Z,80
2023-04-02T09:19:08.733Z,80
2023-04-02T09:21:08.802Z,80
2023-04-02T09:23:11.657Z,79
2023-04-02T09:27:08.441Z,79
2023-04-02T09:29:08.509Z,79
2023-04-02T09:31:10.049Z,79
2023-04-02T09:33:08.452Z,79
2023-04-02T09:35:09.768Z,79
2023-04-02T09:37:08.121Z,79
2023-04-02T09:39:08.488Z,79
2023-04-02T09:41:14.705Z,79
2023-04-02T09:43:08.484Z,79
2023-04-02T09:45:08.470Z,79
2023-04-02T09:47:08.484Z,78
2023-04-02T09:49:11.929Z,79
2023-04-02T09:51:08.504Z,77
2023-04-02T09:53:11.941Z,79
2023-04-02T09:55:08.548Z,78
2023-04-02T09:57:08.971Z,77
2023-04-02T09:59:08.410Z,78
2023-04-02T10:01:08.613Z,77
2023-04-02T10:03:10.276Z,77
2023-04-02T10:05:11.668Z,78
2023-04-02T10:09:08.541Z,79
2023-04-02T10:11:08.520Z,79
2023-04-02T10:17:08.553Z,78
2023-04-02T10:19:11.726Z,78
2023-04-02T10:21:08.533Z,78
2023-04-02T10:23:08.466Z,78
2023-04-02T10:25:08.637Z,77
2023-04-02T10:27:10.072Z,78
2023-04-02T10:29:08.482Z,78
2023-04-02T10:31:08.541Z,78
2023-04-02T10:33:08.540Z,78
2023-04-02T10:37:08.358Z,78
2023-04-02T10:41:08.571Z,76
2023-04-02T10:43:08.525Z,76
2023-04-02T10:45:06.853Z,76
2023-04-02T10:47:08.453Z,76
2023-04-02T10:49:08.535Z,78
2023-04-02T10:51:08.588Z,78
2023-04-02T10:53:11.666Z,78
2023-04-02T10:57:15.198Z,77
2023-04-02T10:59:08.404Z,78
2023-04-02T11:01:08.495Z,78
2023-04-02T11:05:08.446Z,78
2023-04-02T11:07:14.211Z,79
2023-04-02T11:09:08.273Z,79
2023-04-02T11:11:08.244Z,79
2023-04-02T11:15:11.391Z,78
2023-04-02T11:17:08.375Z,78
2023-04-02T11:21:11.580Z,77
2023-04-02T11:23:11.528Z,78
2023-04-02T11:25:08.481Z,77
2023-04-02T11:27:08.215Z,78
2023-04-02T11:29:08.534Z,79
2023-04-02T11:31:08.307Z,79
2023-04-02T11:33:11.950Z,79
2023-04-02T11:35:08.391Z,80
2023-04-02T11:37:08.687Z,80
2023-04-02T11:39:16.868Z,80
2023-04-02T11:41:08.188Z,81
2023-04-02T11:43:15.083Z,81
2023-04-02T11:45:08.514Z,81
2023-04-02T11:47:08.425Z,81
2023-04-02T11:49:08.389Z,81
2023-04-02T11:51:08.574Z,81
2023-04-02T11:53:08.378Z,80
2023-04-02T11:55:11.678Z,81
2023-04-02T11:57:08.564Z,81
2023-04-02T11:59:14.776Z,81
2023-04-02T12:03:10.183Z,80
2023-04-02T12:09:08.336Z,79
2023-04-02T12:11:10.195Z,79
2023-04-02T12:13:11.724Z,79
2023-04-02T12:15:08.530Z,78
2023-04-02T12:17:09.920Z,78
2023-04-02T12:19:11.669Z,81
2023-04-02T12:21:08.417Z,82
2023-04-02T12:23:08.550Z,82
2023-04-02T12:25:08.806Z,83
2023-04-02T12:29:11.959Z,83
2023-04-02T12:31:08.553Z,82
2023-04-02T12:33:08.551Z,82
2023-04-02T12:35:08.499Z,81
2023-04-02T12:37:08.455Z,81
2023-04-02T12:39:08.535Z,80
2023-04-02T12:41:13.207Z,79
2023-04-02T12:43:08.506Z,78
2023-04-02T12:45:08.229Z,78
2023-04-02T12:47:08.519Z,78
2023-04-02T12:49:08.393Z,79
2023-04-02T12:51:08.506Z,78
2023-04-02T12:53:11.631Z,80
2023-04-02T12:57:08.453Z,78
2023-04-02T12:59:08.474Z,76
2023-04-02T13:01:08.533Z,77
2023-04-02T13:03:08.526Z,77
2023-04-02T13:05:08.789Z,76
2023-04-02T13:07:08.482Z,79
2023-04-02T13:09:08.447Z,81
2023-04-02T13:11:08.480Z,82
2023-04-02T13:13:08.507Z,83
2023-04-02T13:15:10.015Z,84
2023-04-02T13:19:11.521Z,85
2023-04-02T13:21:08.573Z,86
2023-04-02T13:23:11.792Z,87
2023-04-02T13:25:08.612Z,87
2023-04-02T13:27:08.517Z,87
2023-04-02T13:29:08.466Z,87
2023-04-02T13:31:08.484Z,87
2023-04-02T13:33:08.535Z,87
2023-04-02T13:35:11.750Z,87
2023-04-02T13:37:08.462Z,87
2023-04-02T13:39:10.091Z,87
2023-04-02T13:41:11.679Z,87
2023-04-02T13:43:08.409Z,86
2023-04-02T13:45:08.486Z,86
2023-04-02T13:47:08.741Z,86
2023-04-02T13:51:08.579Z,85
2023-04-02T13:53:10.354Z,85
2023-04-02T13:57:08.849Z,85
2023-04-02T14:01:08.609Z,85
2023-04-02T14:03:08.467Z,84
2023-04-02T14:05:08.545Z,84
2023-04-02T14:07:11.444Z,83
2023-04-02T14:09:08.516Z,83
2023-04-02T14:11:08.307Z,83
2023-04-02T14:13:11.616Z,83
2023-04-02T14:15:08.563Z,83
2023-04-02T14:17:15.264Z,83
2023-04-02T14:19:11.702Z,82
2023-04-02T14:21:08.567Z,82
2023-04-02T14:23:11.660Z,81
2023-04-02T14:25:10.125Z,81
2023-04-02T14:27:08.518Z,81
2023-04-02T14:29:08.512Z,81
2023-04-02T14:31:12.142Z,82
2023-04-02T14:33:08.534Z,81
2023-04-02T14:37:13.647Z,82
2023-04-02T14:39:08.509Z,82
2023-04-02T14:41:08.562Z,83
2023-04-02T14:47:11.424Z,84
2023-04-02T14:49:08.517Z,83
2023-04-02T14:51:12.041Z,83
2023-04-02T14:53:08.513Z,83
2023-04-02T14:55:08.646Z,82
2023-04-02T14:57:08.565Z,82
2023-04-02T15:01:11.764Z,82
2023-04-02T15:03:08.613Z,82
2023-04-02T15:05:08.510Z,83
2023-04-02T15:07:08.735Z,83
2023-04-02T15:11:08.800Z,83
2023-04-02T15:13:08.524Z,83
2023-04-02T15:15:08.613Z,83
2023-04-02T15:17:09.055Z,83
2023-04-02T15:19:08.471Z,84
2023-04-02T15:21:11.758Z,83
2023-04-02T15:23:09.082Z,83
2023-04-02T15:25:08.466Z,84
2023-04-02T15:27:11.966Z,84
2023-04-02T15:29:19.079Z,84
2023-04-02T15:31:11.864Z,84
2023-04-02T15:33:13.232Z,84
2023-04-02T15:37:08.495Z,84
2023-04-02T15:39:08.576Z,84
2023-04-02T15:41:08.548Z,84
2023-04-02T15:43:08.342Z,84
2023-04-02T15:45:10.196Z,84
2023-04-02T15:47:08.583Z,84
2023-04-02T15:49:11.606Z,84
2023-04-02T15:51:08.532Z,84
2023-04-02T15:53:08.808Z,84
2023-04-02T15:57:11.480Z,85
2023-04-02T15:59:11.898Z,85
2023-04-02T16:01:08.588Z,85
2023-04-02T16:03:08.563Z,85
2023-04-02T16:07:08.265Z,85
2023-04-02T16:09:11.867Z,86
2023-04-02T16:11:08.516Z,85
2023-04-02T16:13:08.495Z,86
2023-04-02T16:15:08.564Z,86
2023-04-02T16:17:17.822Z,86
2023-04-02T16:19:16.450Z,86
2023-04-02T16:21:08.511Z,86
2023-04-02T16:23:15.537Z,86
2023-04-02T16:25:11.820Z,86
2023-04-02T16:27:08.471Z,86
2023-04-02T16:29:08.570Z,86
2023-04-02T16:31:08.599Z,86
2023-04-02T16:33:11.752Z,86
2023-04-02T16:35:25.365Z,86
2023-04-02T16:37:08.429Z,86
2023-04-02T16:39:08.549Z,86
2023-04-02T16:41:09.166Z,86
2023-04-02T16:43:08.545Z,86
2023-04-02T16:45:08.582Z,86
2023-04-02T16:47:08.543Z,86
2023-04-02T16:49:08.564Z,87
2023-04-02T16:51:08.515Z,87
2023-04-02T16:53:08.278Z,87
2023-04-02T16:55:10.698Z,87
2023-04-02T16:57:08.522Z,87
2023-04-02T16:59:11.745Z,87
2023-04-02T17:01:08.586Z,86
2023-04-02T17:05:09.011Z,86
2023-04-02T17:07:11.381Z,87
2023-04-02T17:09:08.628Z,86
2023-04-02T17:11:08.541Z,87
2023-04-02T17:13:11.772Z,87
2023-04-02T17:15:14.156Z,87
2023-04-02T17:17:08.551Z,88
2023-04-02T17:19:08.505Z,88
2023-04-02T17:21:08.576Z,88
2023-04-02T17:23:08.622Z,88
2023-04-02T17:25:08.560Z,88
2023-04-02T17:27:11.416Z,87
2023-04-02T17:29:08.578Z,87
2023-04-02T17:31:08.542Z,87
2023-04-02T17:33:08.582Z,87
2023-04-02T17:35:08.564Z,87
2023-04-02T17:37:08.529Z,87
2023-04-02T17:39:09.134Z,87
2023-04-02T17:41:08.561Z,87
2023-04-02T17:43:08.565Z,88
2023-04-02T17:45:11.566Z,88
2023-04-02T17:47:08.519Z,88
2023-04-02T17:49:08.977Z,88
2023-04-02T17:51:11.652Z,88
2023-04-02T17:55:08.507Z,88
2023-04-02T17:57:11.770Z,87
2023-04-02T17:59:08.539Z,87
2023-04-02T18:03:08.674Z,86
2023-04-02T18:05:08.548Z,86
2023-04-02T18:07:08.449Z,86
2023-04-02T18:09:09.874Z,86
2023-04-02T18:11:13.530Z,86
2023-04-02T18:13:12.063Z,86
2023-04-02T18:15:11.508Z,86
2023-04-02T18:17:10.772Z,86
2023-04-02T18:21:06.957Z,86
2023-04-02T18:23:11.458Z,86
2023-04-02T18:25:13.849Z,85
2023-04-02T18:27:11.513Z,85
2023-04-02T18:29:08.038Z,85
2023-04-02T18:31:11.524Z,86
2023-04-02T18:33:11.630Z,85
2023-04-02T18:35:08.834Z,85
2023-04-02T18:39:11.816Z,85
2023-04-02T18:41:09.078Z,85
2023-04-02T18:43:15.104Z,85
2023-04-02T18:45:11.416Z,85
2023-04-02T18:47:15.508Z,85
2023-04-02T18:51:09.461Z,85
2023-04-02T18:53:11.506Z,85
2023-04-02T18:57:11.763Z,85
2023-04-02T18:59:08.358Z,85
2023-04-02T19:01:12.047Z,85
2023-04-02T19:03:11.767Z,85
2023-04-02T19:05:12.001Z,85
2023-04-02T19:07:15.566Z,85
2023-04-02T19:09:11.898Z,85
2023-04-02T19:11:12.275Z,84
2023-04-02T19:13:10.353Z,85
2023-04-02T19:15:11.726Z,85
2023-04-02T19:17:12.016Z,84
2023-04-02T19:19:12.294Z,84
2023-04-02T19:21:12.673Z,84
2023-04-02T19:23:11.910Z,84
2023-04-02T19:25:21.015Z,84
2023-04-02T19:27:11.943Z,84
2023-04-02T19:29:08.899Z,84
2023-04-02T19:31:12.389Z,84
2023-04-02T19:33:12.122Z,84
2023-04-02T19:35:11.965Z,84
2023-04-02T19:39:11.938Z,84
2023-04-02T19:41:10.749Z,84
2023-04-02T19:43:18.607Z,84
2023-04-02T19:45:11.809Z,84
2023-04-02T19:49:10.677Z,85
2023-04-02T19:51:10.644Z,85
2023-04-02T19:53:11.880Z,84
2023-04-02T19:55:15.217Z,84
2023-04-02T19:57:12.414Z,85
2023-04-02T19:59:17.883Z,85
2023-04-02T20:01:12.514Z,84
2023-04-02T20:03:13.711Z,85
2023-04-02T20:05:12.178Z,84
2023-04-02T20:07:15.155Z,84
2023-04-02T20:09:10.360Z,84
2023-04-02T20:11:11.954Z,82
2023-04-02T20:13:15.262Z,82
2023-04-02T20:17:09.047Z,82
2023-04-02T20:19:11.933Z,82
2023-04-02T20:21:07.589Z,82
2023-04-02T20:23:11.970Z,82
2023-04-02T20:25:12.196Z,82
2023-04-02T20:27:12.425Z,82
2023-04-02T20:29:15.097Z,82
2023-04-02T20:31:11.892Z,82
2023-04-02T20:33:11.823Z,82
2023-04-02T20:35:11.882Z,82
2023-04-02T20:37:12.186Z,82
2023-04-02T20:39:09.435Z,82
2023-04-02T20:41:12.227Z,81
2023-04-02T20:43:15.134Z,81
2023-04-02T20:45:11.536Z,81
2023-04-02T20:47:07.208Z,81
2023-04-02T20:49:13.532Z,81
2023-04-02T20:51:12.170Z,81
2023-04-02T20:53:21.902Z,81
2023-04-02T20:55:12.285Z,81
2023-04-02T20:57:12.086Z,81
2023-04-02T20:59:11.991Z,81
2023-04-02T21:01:12.145Z,81
2023-04-02T21:05:09.010Z,81
2023-04-02T21:09:11.774Z,80
2023-04-02T21:11:12.022Z,80
2023-04-02T21:13:10.600Z,80
2023-04-02T21:15:11.899Z,79
2023-04-02T21:17:12.721Z,80
2023-04-02T21:19:11.968Z,80
2023-04-02T21:21:11.888Z,80
2023-04-02T21:23:12.216Z,80
2023-04-02T21:25:13.317Z,80
2023-04-02T21:27:19.095Z,80
2023-04-02T21:29:12.259Z,79
2023-04-02T21:31:11.980Z,80
2023-04-02T21:33:11.914Z,79
2023-04-02T21:35:11.949Z,79
2023-04-02T21:37:18.926Z,79
2023-04-02T21:39:18.296Z,79
2023-04-02T21:43:13.535Z,79
2023-04-02T21:45:11.880Z,79
2023-04-02T21:47:12.126Z,79
2023-04-02T21:49:11.737Z,79
2023-04-02T21:51:13.528Z,78
2023-04-02T21:53:14.907Z,78
2023-04-02T21:55:15.483Z,78
2023-04-02T21:57:17.812Z,78
2023-04-02T21:59:11.868Z,78
2023-04-02T22:01:24.304Z,78
2023-04-02T22:03:25.002Z,78
2023-04-02T22:05:12.209Z,78
2023-04-02T22:07:12.320Z,78
2023-04-02T22:11:12.415Z,78
2023-04-02T22:15:11.693Z,77
2023-04-02T22:17:10.482Z,77
2023-04-02T22:19:09.979Z,77
2023-04-02T22:21:12.042Z,77
2023-04-02T22:23:09.089Z,78
2023-04-02T22:25:11.859Z,77
2023-04-02T22:27:12.480Z,77
2023-04-02T22:29:08.307Z,77
2023-04-02T22:33:11.882Z,77
2023-04-02T22:35:18.699Z,76
2023-04-02T22:37:12.439Z,77
2023-04-02T22:39:09.414Z,77
2023-04-02T22:41:12.264Z,77
2023-04-02T22:43:15.178Z,78
2023-04-02T22:45:12.293Z,77
2023-04-02T22:47:12.097Z,77
2023-04-02T22:49:12.618Z,77
2023-04-02T22:53:12.169Z,78
2023-04-02T22:55:18.885Z,78
2023-04-02T22:57:13.597Z,78
2023-04-02T22:59:11.821Z,78
2023-04-02T23:01:10.060Z,78
2023-04-02T23:03:11.913Z,78
2023-04-02T23:05:12.484Z,78
2023-04-02T23:07:15.243Z,78
2023-04-02T23:09:08.759Z,78
2023-04-02T23:11:10.490Z,77
2023-04-02T23:13:12.517Z,77
2023-04-02T23:15:09.212Z,77
2023-04-02T23:17:08.991Z,77
2023-04-02T23:19:09.039Z,77
2023-04-02T23:21:12.028Z,77
2023-04-02T23:23:11.443Z,77
2023-04-02T23:25:12.071Z,77
2023-04-02T23:29:11.614Z,77
2023-04-02T23:31:12.396Z,77
2023-04-02T23:35:11.853Z,77
2023-04-02T23:39:12.094Z,77
2023-04-02T23:41:13.585Z,77
2023-04-02T23:43:12.018Z,77
2023-04-02T23:47:12.196Z,76
2023-04-02T23:51:15.120Z,76
2023-04-02T23:53:15.098Z,77
2023-04-02T23:55:12.422Z,76
2023-04-02T23:57:19.118Z,76
2023-04-02T23:59:12.083Z,75
